Time;durP1;ratioP1;P1;durP2;ratioP2;P2;SDS_P1;SDS_P2;PMS_P1;PMS_P2;Temp;Humidity;BMP_temperature;BMP_pressure;BME280_temperature;BME280_humidity;BME280_pressure;Samples;Min_cycle;Max_cycle;Signal;HPM_P1;HPM_P2
2024/01/18 00:00:23;;;;;;;10.47;4.30;;;;;;;10.38;39.66;99476.94;5050536;28;20025;-72
2024/01/18 00:02:48;;;;;;;7.33;4.70;;;;;;;10.36;39.52;99479.59;5049791;28;20378;-72
2024/01/18 00:05:13;;;;;;;7.50;4.27;;;;;;;9.88;41.24;99487.91;5051421;28;20031;-72
2024/01/18 00:07:39;;;;;;;14.40;3.57;;;;;;;9.91;40.66;99480.88;5050088;28;20086;-72
2024/01/18 00:10:05;;;;;;;7.80;4.10;;;;;;;10.18;39.88;99487.03;5046485;28;20032;-71
2024/01/18 00:12:31;;;;;;;9.63;5.20;;;;;;;9.99;40.43;99486.72;5048447;28;20037;-72
2024/01/18 00:14:56;;;;;;;11.20;3.97;;;;;;;9.97;40.53;99493.75;5049335;28;20362;-72
2024/01/18 00:17:22;;;;;;;9.93;4.37;;;;;;;9.89;39.91;99500.97;5046544;28;20044;-72
2024/01/18 00:19:47;;;;;;;7.77;4.87;;;;;;;9.95;39.66;99500.75;5038190;28;20033;-72
2024/01/18 00:22:12;;;;;;;6.60;4.30;;;;;;;9.74;40.27;99506.59;5050402;28;20425;-72
2024/01/18 00:24:38;;;;;;;8.80;4.23;;;;;;;9.11;41.96;99519.53;5049388;28;20118;-72
2024/01/18 00:27:06;;;;;;;6.23;2.97;;;;;;;9.57;40.71;99525.31;5050527;28;20468;-72
2024/01/18 00:29:32;;;;;;;8.23;3.53;;;;;;;9.55;39.81;99520.16;5050468;28;20037;-72
2024/01/18 00:31:57;;;;;;;9.63;4.43;;;;;;;9.46;40.15;99525.59;5050637;28;20074;-71
2024/01/18 00:34:22;;;;;;;8.93;4.00;;;;;;;9.41;41.19;99525.72;5050125;28;20081;-72
2024/01/18 00:36:49;;;;;;;7.97;3.97;;;;;;;8.84;41.66;99524.53;5050811;28;20032;-72
2024/01/18 00:39:18;;;;;;;9.90;5.00;;;;;;;8.97;41.18;99530.28;5049538;28;20450;-72
2024/01/18 00:41:44;;;;;;;7.73;3.60;;;;;;;8.99;42.25;99529.34;5049914;28;20075;-71
2024/01/18 00:44:09;;;;;;;11.73;4.47;;;;;;;8.64;42.38;99538.00;5051156;28;20438;-71
2024/01/18 00:46:35;;;;;;;8.70;4.87;;;;;;;8.79;41.77;99531.59;5049389;28;20393;-71
2024/01/18 00:49:00;;;;;;;7.83;4.13;;;;;;;8.72;42.46;99537.84;5050152;28;20104;-71
2024/01/18 00:51:26;;;;;;;7.27;3.87;;;;;;;8.66;42.07;99534.47;5050525;28;20484;-71
2024/01/18 00:53:51;;;;;;;7.77;4.83;;;;;;;8.61;41.82;99551.97;5048837;28;20037;-71
2024/01/18 00:56:16;;;;;;;12.37;4.97;;;;;;;8.64;41.52;99541.47;5052202;28;20033;-71
2024/01/18 00:58:42;;;;;;;14.23;4.20;;;;;;;8.60;42.42;99557.19;5054667;28;20080;-72
2024/01/18 01:01:07;;;;;;;7.47;4.60;;;;;;;8.67;41.79;99548.38;5054666;28;20036;-71
2024/01/18 01:03:33;;;;;;;10.97;4.73;;;;;;;8.63;41.52;99554.53;5053430;28;20033;-72
2024/01/18 01:05:58;;;;;;;8.57;5.20;;;;;;;8.49;42.26;99560.06;5054808;28;20491;-71
2024/01/18 01:08:24;;;;;;;10.43;4.63;;;;;;;8.73;41.52;99555.19;5053496;28;20033;-71
2024/01/18 01:10:50;;;;;;;8.50;4.00;;;;;;;8.71;41.21;99564.78;5053165;28;20051;-71
2024/01/18 01:13:15;;;;;;;10.30;5.03;;;;;;;8.43;41.83;99571.41;5052848;28;20075;-71
2024/01/18 01:15:40;;;;;;;12.87;5.53;;;;;;;8.24;42.12;99563.16;5049545;28;20488;-71
2024/01/18 01:18:06;;;;;;;9.87;4.83;;;;;;;8.51;41.88;99570.44;5032597;28;20086;-71
2024/01/18 01:20:31;;;;;;;11.13;5.13;;;;;;;8.04;42.09;99562.69;5045333;28;20032;-71
2024/01/18 01:22:57;;;;;;;10.00;4.43;;;;;;;8.08;42.49;99559.16;5054564;28;20036;-71
2024/01/18 01:25:22;;;;;;;8.87;4.40;;;;;;;8.06;42.66;99566.09;5051675;28;20494;-71
2024/01/18 01:27:48;;;;;;;8.80;4.57;;;;;;;8.13;42.74;99573.78;5052620;28;20025;-71
2024/01/18 01:30:14;;;;;;;9.67;4.27;;;;;;;8.08;43.02;99574.75;5053866;28;20025;-71
2024/01/18 01:32:40;;;;;;;8.70;4.67;;;;;;;8.13;42.22;99572.91;5053128;28;20287;-71
2024/01/18 01:35:05;;;;;;;7.30;4.33;;;;;;;8.56;40.99;99582.47;5052712;28;20647;-71
2024/01/18 01:37:31;;;;;;;12.07;4.37;;;;;;;7.96;42.26;99586.25;5052920;28;20569;-71
2024/01/18 01:39:56;;;;;;;13.50;5.50;;;;;;;8.39;41.49;99576.72;5052699;28;20492;-71
2024/01/18 01:42:21;;;;;;;5.67;3.43;;;;;;;7.96;41.32;99581.91;5052757;28;20124;-71
2024/01/18 01:44:49;;;;;;;8.87;4.73;;;;;;;7.97;41.67;99581.00;5052103;28;20428;-71
2024/01/18 01:47:15;;;;;;;7.07;3.70;;;;;;;8.09;41.68;99586.88;5052477;28;20048;-70
2024/01/18 01:49:41;;;;;;;13.97;4.23;;;;;;;8.41;40.97;99588.81;5048922;28;20103;-71
2024/01/18 01:52:07;;;;;;;7.87;3.93;;;;;;;8.07;42.17;99593.84;5046436;28;20141;-71
2024/01/18 01:54:32;;;;;;;9.33;3.90;;;;;;;8.06;41.36;99592.97;5051458;28;20032;-71
2024/01/18 01:57:01;;;;;;;12.03;4.00;;;;;;;8.21;41.48;99591.81;5053888;28;20037;-71
2024/01/18 01:59:26;;;;;;;5.13;3.13;;;;;;;7.97;42.44;99596.63;5053079;28;20029;-71
2024/01/18 02:01:52;;;;;;;9.23;4.20;;;;;;;8.17;42.01;99605.78;5053263;28;20769;-71
2024/01/18 02:04:19;;;;;;;6.53;3.90;;;;;;;7.90;42.29;99608.03;5053625;28;20465;-71
2024/01/18 02:06:46;;;;;;;7.00;3.70;;;;;;;8.12;42.05;99607.66;5050244;28;20311;-70
2024/01/18 02:09:11;;;;;;;9.93;4.13;;;;;;;7.77;41.64;99624.75;5051858;28;20311;-71
2024/01/18 02:11:37;;;;;;;8.00;3.90;;;;;;;7.57;42.22;99623.38;5052668;28;20337;-71
2024/01/18 02:14:03;;;;;;;8.13;2.53;;;;;;;6.23;45.59;99631.28;5052654;28;20564;-71
2024/01/18 02:16:30;;;;;;;7.23;2.80;;;;;;;6.46;45.77;99637.97;5052811;28;20104;-71
2024/01/18 02:18:55;;;;;;;3.57;2.30;;;;;;;7.46;43.32;99636.53;5053456;28;20294;-71
2024/01/18 02:21:21;;;;;;;4.93;2.43;;;;;;;7.57;43.03;99631.16;5052558;28;20488;-71
2024/01/18 02:23:51;;;;;;;7.97;2.77;;;;;;;7.81;43.47;99629.03;5051521;28;20025;-71
2024/01/18 02:26:16;;;;;;;3.47;1.87;;;;;;;7.93;41.85;99634.00;5053086;28;20044;-71
2024/01/18 02:28:56;;;;;;;4.13;1.90;;;;;;;8.28;42.68;99631.63;5051061;28;20473;-71
2024/01/18 02:31:22;;;;;;;3.93;1.90;;;;;;;7.66;42.93;99631.91;5053128;28;20039;-71
2024/01/18 02:33:48;;;;;;;2.10;1.57;;;;;;;8.05;42.70;99629.44;5050225;28;20388;-70
2024/01/18 02:36:14;;;;;;;1.63;1.03;;;;;;;8.01;42.51;99633.88;5048032;28;20025;-71
2024/01/18 02:38:40;;;;;;;3.30;1.50;;;;;;;8.59;42.36;99621.47;5051534;28;20487;-70
2024/01/18 02:41:05;;;;;;;2.83;1.53;;;;;;;9.07;41.46;99624.78;5051890;28;20039;-71
2024/01/18 02:43:31;;;;;;;10.10;1.87;;;;;;;8.60;42.36;99620.59;5052333;28;20494;-71
2024/01/18 02:45:56;;;;;;;5.43;1.77;;;;;;;8.95;41.40;99626.75;5052840;28;20033;-71
2024/01/18 02:48:22;;;;;;;2.17;1.27;;;;;;;8.52;43.11;99613.81;5051668;28;20049;-71
2024/01/18 02:50:47;;;;;;;2.57;1.83;;;;;;;9.02;42.27;99617.06;5052305;28;20139;-71
2024/01/18 02:53:13;;;;;;;3.10;1.40;;;;;;;9.43;41.13;99623.03;5052490;28;20064;-71
2024/01/18 02:55:38;;;;;;;3.37;1.43;;;;;;;9.16;41.36;99615.00;5046654;28;20398;-71
2024/01/18 02:58:04;;;;;;;2.70;1.20;;;;;;;9.24;40.97;99622.63;5049151;28;20033;-71
2024/01/18 03:00:30;;;;;;;2.37;1.17;;;;;;;9.12;40.86;99618.56;5052068;28;20120;-70
2024/01/18 03:02:55;;;;;;;6.10;1.17;;;;;;;8.97;41.05;99614.56;5050577;28;20502;-71
2024/01/18 03:05:20;;;;;;;4.10;1.30;;;;;;;9.03;40.83;99623.13;5052446;28;20226;-70
2024/01/18 03:07:46;;;;;;;2.17;1.73;;;;;;;9.09;40.50;99622.97;5050837;28;20463;-71
2024/01/18 03:10:11;;;;;;;1.70;1.00;;;;;;;8.97;40.61;99627.59;5051668;28;20032;-70
2024/01/18 03:12:37;;;;;;;3.50;1.73;;;;;;;8.38;42.18;99625.34;5051837;28;20396;-71
2024/01/18 03:15:05;;;;;;;14.57;1.80;;;;;;;8.19;43.15;99624.84;5051501;28;20033;-71
2024/01/18 03:17:31;;;;;;;3.30;1.90;;;;;;;8.52;41.65;99630.31;5051672;28;20032;-70
2024/01/18 03:19:56;;;;;;;7.57;1.57;;;;;;;8.84;41.32;99631.34;5050293;28;20487;-71
2024/01/18 03:22:21;;;;;;;5.80;1.67;;;;;;;8.94;41.39;99638.09;5052043;28;20037;-71
2024/01/18 03:24:47;;;;;;;5.03;1.10;;;;;;;8.76;40.38;99636.72;5051124;28;20044;-70
2024/01/18 03:27:12;;;;;;;1.97;1.10;;;;;;;8.49;41.19;99643.41;5050527;28;20040;-70
2024/01/18 03:29:38;;;;;;;1.47;1.00;;;;;;;8.39;42.30;99641.81;5050097;28;20113;-71
2024/01/18 03:32:04;;;;;;;5.97;1.97;;;;;;;8.35;42.11;99646.22;5050904;28;20025;-71
2024/01/18 03:34:29;;;;;;;8.83;3.03;;;;;;;8.68;41.90;99638.63;5030398;28;20056;-71
2024/01/18 03:36:54;;;;;;;9.73;2.83;;;;;;;8.50;42.62;99645.09;5041812;28;20044;-71
2024/01/18 03:39:20;;;;;;;7.47;2.67;;;;;;;8.16;43.31;99645.75;5050755;28;20405;-71
2024/01/18 03:41:45;;;;;;;13.03;3.23;;;;;;;8.31;42.89;99649.78;5051282;28;20098;-71
2024/01/18 03:44:11;;;;;;;6.53;2.73;;;;;;;8.04;42.79;99643.38;5050598;28;20174;-70
2024/01/18 03:46:36;;;;;;;3.63;1.67;;;;;;;8.08;41.30;99647.63;5050906;28;20028;-71
2024/01/18 03:49:01;;;;;;;1.80;0.93;;;;;;;8.28;40.65;99652.44;5050467;28;20034;-70
2024/01/18 03:51:27;;;;;;;6.87;1.03;;;;;;;8.05;42.37;99655.47;5050660;28;20499;-71
2024/01/18 03:53:52;;;;;;;2.47;1.60;;;;;;;7.98;42.27;99650.41;5051431;28;20477;-71
2024/01/18 03:56:17;;;;;;;6.33;2.70;;;;;;;7.66;42.95;99657.91;5051413;28;20033;-71
2024/01/18 03:58:43;;;;;;;7.67;2.37;;;;;;;7.74;42.53;99648.22;5050443;28;20035;-71
2024/01/18 04:01:09;;;;;;;3.93;1.73;;;;;;;8.19;41.36;99660.41;5051089;28;20055;-71
2024/01/18 04:03:34;;;;;;;11.90;2.67;;;;;;;8.00;42.93;99659.94;5046485;28;20036;-71
2024/01/18 04:05:59;;;;;;;5.93;1.67;;;;;;;8.17;41.47;99668.25;5040257;28;20041;-71
2024/01/18 04:08:25;;;;;;;3.13;1.40;;;;;;;8.02;42.55;99671.16;5051565;28;20036;-71
2024/01/18 04:10:51;;;;;;;6.03;1.77;;;;;;;7.97;42.82;99666.88;5051266;28;20035;-70
2024/01/18 04:13:16;;;;;;;6.73;1.63;;;;;;;7.94;41.53;99666.94;5050109;28;20468;-71
2024/01/18 04:15:41;;;;;;;7.43;2.17;;;;;;;7.85;41.70;99672.31;5049484;28;20444;-71
2024/01/18 04:18:07;;;;;;;7.33;1.87;;;;;;;7.61;42.57;99664.03;5051220;28;20029;-70
2024/01/18 04:20:32;;;;;;;7.60;1.63;;;;;;;7.52;42.89;99664.19;5045147;28;20029;-71
2024/01/18 04:22:58;;;;;;;3.07;1.93;;;;;;;7.52;43.55;99664.19;5034411;28;20369;-70
2024/01/18 04:25:24;;;;;;;2.43;1.33;;;;;;;7.48;42.14;99667.72;5051441;28;20096;-70
2024/01/18 04:27:49;;;;;;;2.50;1.17;;;;;;;7.33;42.95;99662.78;5049787;28;20044;-70
2024/01/18 04:30:14;;;;;;;5.60;2.23;;;;;;;7.43;42.46;99665.19;5049697;28;20441;-70
2024/01/18 04:32:40;;;;;;;11.77;1.57;;;;;;;7.42;43.44;99678.22;5049202;28;20029;-71
2024/01/18 04:35:05;;;;;;;2.17;1.10;;;;;;;7.47;43.02;99681.59;5049742;28;20060;-70
2024/01/18 04:37:31;;;;;;;8.83;1.97;;;;;;;7.36;42.82;99688.72;5050726;28;20029;-70
2024/01/18 04:39:56;;;;;;;4.60;1.80;;;;;;;6.99;43.84;99687.47;5051088;28;20025;-70
2024/01/18 04:42:22;;;;;;;4.80;1.63;;;;;;;7.11;44.17;99691.66;5048812;28;20040;-70
2024/01/18 04:44:47;;;;;;;2.10;1.07;;;;;;;7.32;43.54;99693.09;5049133;28;20559;-70
2024/01/18 04:47:13;;;;;;;5.07;1.37;;;;;;;7.35;43.48;99703.47;5050267;28;20040;-71
2024/01/18 04:49:38;;;;;;;2.50;1.20;;;;;;;7.63;42.86;99698.66;5048576;28;20079;-70
2024/01/18 04:52:03;;;;;;;3.57;1.43;;;;;;;7.50;43.34;99699.78;5049467;28;20057;-70
2024/01/18 04:54:29;;;;;;;3.97;1.60;;;;;;;7.18;43.71;99708.03;5049641;28;20029;-70
2024/01/18 04:56:54;;;;;;;1.57;1.30;;;;;;;7.41;42.36;99697.31;5050968;28;20104;-71
2024/01/18 04:59:20;;;;;;;4.40;2.03;;;;;;;7.41;42.75;99702.50;5049790;28;20404;-70
2024/01/18 05:01:47;;;;;;;4.60;1.60;;;;;;;7.38;42.43;99706.00;5049605;28;20223;-70
2024/01/18 05:04:12;;;;;;;2.63;1.80;;;;;;;7.57;43.01;99709.19;5050992;28;20046;-70
2024/01/18 05:06:38;;;;;;;2.47;1.50;;;;;;;7.28;42.71;99718.28;5048613;28;20635;-70
2024/01/18 05:09:03;;;;;;;5.53;1.83;;;;;;;7.32;42.72;99713.88;5049750;28;20037;-71
2024/01/18 05:11:29;;;;;;;3.37;1.47;;;;;;;7.27;42.33;99710.50;5050069;28;20033;-70
2024/01/18 05:13:54;;;;;;;1.40;1.30;;;;;;;7.20;42.82;99724.44;5050834;28;20358;-70
2024/01/18 05:16:20;;;;;;;1.87;1.40;;;;;;;7.49;42.22;99721.44;5050136;28;20025;-71
2024/01/18 05:18:46;;;;;;;2.00;1.47;;;;;;;7.45;42.28;99717.19;5050101;28;20032;-72
2024/01/18 05:21:11;;;;;;;4.00;1.63;;;;;;;7.08;42.43;99730.69;5050370;28;20045;-71
2024/01/18 05:23:36;;;;;;;4.17;1.60;;;;;;;7.09;42.40;99732.41;5049494;28;20033;-71
2024/01/18 05:26:03;;;;;;;3.17;1.50;;;;;;;7.26;42.07;99733.03;5050983;28;20032;-71
2024/01/18 05:28:29;;;;;;;3.10;1.20;;;;;;;6.89;43.01;99736.09;5049078;28;20353;-71
2024/01/18 05:30:56;;;;;;;2.43;1.27;;;;;;;7.01;43.50;99744.66;5047816;28;20283;-72
2024/01/18 05:33:22;;;;;;;1.07;0.97;;;;;;;7.50;42.18;99751.78;5050173;28;20039;-71
2024/01/18 05:35:47;;;;;;;1.73;1.20;;;;;;;7.41;42.35;99754.50;5050344;28;20268;-71
2024/01/18 05:38:13;;;;;;;1.70;1.20;;;;;;;7.30;41.35;99759.84;5049810;28;20503;-72
2024/01/18 05:40:38;;;;;;;3.60;2.13;;;;;;;7.34;42.24;99764.13;5049959;28;20029;-71
2024/01/18 05:43:03;;;;;;;5.60;1.57;;;;;;;7.18;42.68;99773.84;5048935;28;20541;-71
2024/01/18 05:45:29;;;;;;;5.03;1.83;;;;;;;6.91;43.29;99765.53;5051000;28;20037;-71
2024/01/18 05:47:54;;;;;;;1.47;1.37;;;;;;;6.91;43.46;99770.75;5053731;28;20053;-72
2024/01/18 05:50:20;;;;;;;1.90;1.20;;;;;;;6.96;43.49;99774.16;5053143;28;20473;-72
2024/01/18 05:52:46;;;;;;;1.10;1.00;;;;;;;6.99;43.33;99773.22;5053000;28;20366;-71
2024/01/18 05:55:11;;;;;;;1.97;0.93;;;;;;;7.15;42.62;99773.91;5053826;28;20384;-72
2024/01/18 05:57:37;;;;;;;2.23;0.90;;;;;;;7.06;42.67;99779.22;5053109;28;20082;-71
2024/01/18 06:00:05;;;;;;;3.27;1.03;;;;;;;6.90;43.07;99779.41;5056018;28;20373;-72
2024/01/18 06:02:31;;;;;;;5.33;2.23;;;;;;;6.95;42.88;99789.72;5048385;28;20311;-72
2024/01/18 06:04:57;;;;;;;7.43;2.33;;;;;;;6.94;42.66;99782.84;5045373;28;20279;-72
2024/01/18 06:07:23;;;;;;;5.10;2.13;;;;;;;7.08;43.26;99790.47;5053841;28;20765;-72
2024/01/18 06:09:48;;;;;;;2.30;1.67;;;;;;;7.34;42.81;99779.72;5053711;28;20268;-72
2024/01/18 06:12:14;;;;;;;3.20;2.57;;;;;;;7.19;41.90;99791.19;5052869;28;20734;-72
2024/01/18 06:14:39;;;;;;;3.50;2.57;;;;;;;7.17;41.72;99792.94;5052882;28;20033;-72
2024/01/18 06:17:04;;;;;;;5.30;2.43;;;;;;;7.09;42.55;99794.78;5051438;28;20492;-72
2024/01/18 06:19:30;;;;;;;5.40;3.33;;;;;;;7.03;42.07;99807.84;5051525;28;20477;-72
2024/01/18 06:21:55;;;;;;;10.47;4.80;;;;;;;6.82;42.70;99808.97;5053296;28;20028;-72
2024/01/18 06:24:21;;;;;;;10.80;4.07;;;;;;;6.67;42.95;99812.56;5045151;28;20029;-72
2024/01/18 06:26:46;;;;;;;7.50;3.83;;;;;;;6.80;43.29;99821.97;5032526;28;20156;-71
2024/01/18 06:29:12;;;;;;;18.43;4.10;;;;;;;6.64;43.45;99823.00;5043434;28;20134;-72
2024/01/18 06:31:37;;;;;;;10.90;3.93;;;;;;;6.80;43.06;99827.16;5051382;28;20044;-71
2024/01/18 06:34:04;;;;;;;5.53;3.67;;;;;;;7.25;42.54;99817.13;5052004;28;20033;-71
2024/01/18 06:36:30;;;;;;;7.57;3.63;;;;;;;6.96;41.80;99815.72;5052906;28;20496;-71
2024/01/18 06:38:56;;;;;;;6.63;3.70;;;;;;;6.76;42.50;99817.69;5053034;28;20275;-71
2024/01/18 06:41:21;;;;;;;6.00;3.30;;;;;;;6.61;43.28;99824.72;5050389;28;20040;-71
2024/01/18 06:43:48;;;;;;;6.77;3.23;;;;;;;6.66;43.54;99834.22;5051881;28;20033;-71
2024/01/18 06:46:17;;;;;;;6.70;3.20;;;;;;;6.78;43.37;99832.34;5013113;28;20397;-72
2024/01/18 06:48:50;;;;;;;18.20;3.10;;;;;;;6.95;42.28;99833.91;5047735;28;20374;-72
2024/01/18 06:51:15;;;;;;;;;;;;;;;7.56;40.38;99837.50;5049791;28;20286;-72
2024/01/18 06:53:41;;;;;;;3.00;2.37;;;;;;;6.92;41.98;99845.22;5047803;28;20307;-72
2024/01/18 06:56:11;;;;;;;11.33;3.53;;;;;;;6.93;42.32;99852.09;5050813;28;20078;-70
2024/01/18 06:58:36;;;;;;;3.73;1.97;;;;;;;6.85;42.30;99853.06;5050667;28;20040;-70
2024/01/18 07:01:01;;;;;;;3.97;1.73;;;;;;;6.61;42.25;99850.69;5047401;28;20288;-71
2024/01/18 07:03:30;;;;;;;7.67;2.73;;;;;;;6.75;42.64;99862.69;5052940;28;20170;-71
2024/01/18 07:05:56;;;;;;;5.43;3.03;;;;;;;6.65;43.16;99861.06;5051301;28;20409;-71
2024/01/18 07:08:21;;;;;;;3.70;2.40;;;;;;;6.76;42.74;99874.81;5051937;28;20286;-72
2024/01/18 07:10:48;;;;;;;4.90;2.53;;;;;;;6.66;41.92;99873.16;5052013;28;20532;-71
2024/01/18 07:13:14;;;;;;;6.40;2.57;;;;;;;6.66;43.25;99871.41;5051832;28;20112;-71
2024/01/18 07:15:39;;;;;;;3.53;1.83;;;;;;;6.53;43.07;99882.81;5046328;28;20290;-72
2024/01/18 07:18:05;;;;;;;2.87;1.93;;;;;;;6.84;42.80;99887.72;5049337;28;20267;-72
2024/01/18 07:20:30;;;;;;;4.00;2.30;;;;;;;7.17;41.58;99891.72;5050750;28;20028;-72
2024/01/18 07:22:56;;;;;;;2.13;1.77;;;;;;;7.00;42.34;99893.63;5050490;28;20463;-71
2024/01/18 07:25:21;;;;;;;25.00;6.30;;;;;;;6.93;42.04;99893.69;5051587;28;20036;-71
2024/01/18 07:27:47;;;;;;;3.83;2.50;;;;;;;6.78;42.22;99893.84;5050968;28;20040;-72
2024/01/18 07:30:14;;;;;;;8.03;3.33;;;;;;;6.65;42.17;99897.41;5050184;28;20436;-72
2024/01/18 07:32:40;;;;;;;16.73;4.10;;;;;;;6.56;42.18;99899.22;5051668;28;20127;-72
2024/01/18 07:35:05;;;;;;;6.67;2.60;;;;;;;6.50;42.35;99901.88;5051386;28;20284;-72
2024/01/18 07:37:31;;;;;;;6.63;2.67;;;;;;;6.58;42.47;99907.88;5049988;28;20033;-73
2024/01/18 07:39:56;;;;;;;8.63;3.40;;;;;;;6.67;41.36;99900.88;5049251;28;20020;-73
2024/01/18 07:42:22;;;;;;;4.00;2.33;;;;;;;6.34;42.40;99913.25;5031755;28;20033;-73
2024/01/18 07:44:47;;;;;;;10.20;2.37;;;;;;;6.43;42.20;99913.19;5030541;28;20029;-73
2024/01/18 07:47:13;;;;;;;11.67;3.30;;;;;;;6.43;42.49;99923.56;5050005;28;20072;-72
2024/01/18 07:49:46;;;;;;;13.43;3.30;;;;;;;6.31;43.58;99928.84;5051109;28;20029;-73
2024/01/18 07:52:14;;;;;;;7.13;3.78;;;;;;;6.32;42.21;99927.97;5051026;28;20272;-73
2024/01/18 07:54:40;;;;;;;13.03;5.37;;;;;;;6.11;43.84;99932.41;5049634;28;20064;-73
2024/01/18 07:57:05;;;;;;;10.93;3.53;;;;;;;6.03;43.67;99929.00;5049327;28;20315;-73
2024/01/18 07:59:31;;;;;;;10.50;4.73;;;;;;;6.22;43.28;99930.63;5049058;28;20024;-73
2024/01/18 08:01:56;;;;;;;9.90;3.63;;;;;;;6.24;43.17;99934.06;5051225;28;20068;-73
2024/01/18 08:04:22;;;;;;;11.40;4.67;;;;;;;6.08;43.83;99943.66;5049255;28;20021;-73
2024/01/18 08:06:47;;;;;;;9.90;3.67;;;;;;;6.10;43.34;99948.88;5050951;28;20442;-72
2024/01/18 08:09:13;;;;;;;11.43;3.97;;;;;;;6.09;43.55;99945.41;5051331;28;20033;-73
2024/01/18 08:11:39;;;;;;;4.77;2.80;;;;;;;6.04;43.54;99947.16;5045209;28;20447;-73
2024/01/18 08:14:04;;;;;;;12.17;3.63;;;;;;;6.30;42.51;99947.88;5030481;28;20124;-73
2024/01/18 08:16:29;;;;;;;10.60;2.87;;;;;;;6.13;42.83;99956.63;5030769;28;20038;-73
2024/01/18 08:18:55;;;;;;;5.87;2.53;;;;;;;5.81;44.39;99960.22;5048647;28;20469;-73
2024/01/18 08:21:21;;;;;;;14.67;4.20;;;;;;;6.45;42.89;99960.75;5049807;28;20384;-73
2024/01/18 08:23:47;;;;;;;6.23;2.37;;;;;;;6.15;43.44;99975.63;5049360;28;20078;-73
2024/01/18 08:26:13;;;;;;;9.83;2.37;;;;;;;6.02;43.40;99974.00;5050350;28;20275;-73
2024/01/18 08:28:38;;;;;;;6.40;3.03;;;;;;;5.85;44.10;99982.69;5050588;28;20465;-73
2024/01/18 08:31:03;;;;;;;6.87;3.37;;;;;;;6.25;42.92;99984.22;5050619;28;20055;-73
2024/01/18 08:33:29;;;;;;;12.70;4.13;;;;;;;6.10;44.17;99980.00;5049672;28;20032;-73
2024/01/18 08:35:54;;;;;;;7.93;3.50;;;;;;;6.40;42.80;99988.47;5046088;28;20560;-73
2024/01/18 08:38:20;;;;;;;5.43;4.17;;;;;;;6.06;44.59;99996.47;5049855;28;20036;-73
2024/01/18 08:40:46;;;;;;;3.10;2.27;;;;;;;6.48;42.96;99989.28;5048958;28;20066;-73
2024/01/18 08:43:12;;;;;;;3.67;2.23;;;;;;;6.74;42.07;100001.22;5050514;28;20651;-73
2024/01/18 08:45:40;;;;;;;5.63;2.03;;;;;;;6.93;41.85;100002.78;5048979;28;20272;-73
2024/01/18 08:48:05;;;;;;;6.50;2.77;;;;;;;6.74;41.88;100011.63;5048865;28;20052;-73
2024/01/18 08:50:31;;;;;;;7.87;2.93;;;;;;;6.36;43.78;100005.81;5048977;28;20643;-73
2024/01/18 08:52:56;;;;;;;3.60;2.10;;;;;;;6.82;42.38;100002.03;5045821;28;20150;-73
2024/01/18 08:55:23;;;;;;;7.70;2.37;;;;;;;6.65;43.07;100011.69;5042445;28;20060;-73
2024/01/18 08:57:49;;;;;;;6.57;3.60;;;;;;;6.89;42.38;100011.50;5048442;28;20186;-72
2024/01/18 09:00:17;;;;;;;3.40;2.20;;;;;;;6.98;41.97;100018.38;5050879;28;20321;-73
2024/01/18 09:02:45;;;;;;;5.37;2.50;;;;;;;7.07;42.27;100022.63;5048504;28;20311;-73
2024/01/18 09:05:11;;;;;;;6.10;2.63;;;;;;;6.96;42.37;100023.59;5051105;28;20322;-73
2024/01/18 09:07:36;;;;;;;13.03;2.53;;;;;;;7.04;42.53;100030.44;5048415;28;20702;-73
2024/01/18 09:10:03;;;;;;;4.17;2.07;;;;;;;7.07;43.49;100033.00;5049955;28;20453;-73
2024/01/18 09:12:29;;;;;;;11.53;2.47;;;;;;;7.17;43.32;100032.06;5050206;28;20088;-73
2024/01/18 09:14:54;;;;;;;3.80;2.53;;;;;;;7.41;42.34;100040.50;5046379;28;20287;-73
2024/01/18 09:17:20;;;;;;;5.43;2.40;;;;;;;7.54;41.98;100042.13;5049564;28;20036;-73
2024/01/18 09:19:46;;;;;;;4.87;3.00;;;;;;;7.84;42.13;100047.84;5051731;28;20487;-73
2024/01/18 09:22:11;;;;;;;7.40;3.10;;;;;;;7.93;42.56;100054.72;5053101;28;20443;-73
2024/01/18 09:24:37;;;;;;;21.13;4.53;;;;;;;7.95;42.55;100064.22;5052752;28;20275;-71
2024/01/18 09:27:03;;;;;;;9.30;4.23;;;;;;;8.21;42.09;100070.84;5054227;28;20079;-71
2024/01/18 09:29:31;;;;;;;12.90;6.23;;;;;;;8.58;42.09;100075.59;5009787;28;20044;-72
2024/01/18 09:31:56;;;;;;;15.60;6.90;;;;;;;8.75;42.29;100092.75;5051703;28;20388;-72
2024/01/18 09:34:22;;;;;;;18.80;6.53;;;;;;;8.68;42.27;100098.94;5053603;28;20029;-72
2024/01/18 09:36:47;;;;;;;3.83;2.07;;;;;;;8.39;43.26;100110.56;5051399;28;20500;-72
2024/01/18 09:39:15;;;;;;;2.27;1.43;;;;;;;8.44;43.19;100113.97;5051575;28;20028;-72
2024/01/18 09:41:50;;;;;;;5.83;2.57;;;;;;;9.56;42.36;100116.69;5053144;28;20060;-72
2024/01/18 09:44:23;;;;;;;3.53;1.70;;;;;;;8.59;43.17;100131.19;5047035;28;20474;-72
2024/01/18 09:46:50;;;;;;;7.37;2.50;;;;;;;8.76;43.12;100138.78;5051713;28;20348;-72
2024/01/18 09:49:15;;;;;;;1.20;1.03;;;;;;;8.95;43.48;100136.78;5050933;28;20039;-72
2024/01/18 09:51:43;;;;;;;7.07;2.00;;;;;;;8.93;44.38;100149.81;5052334;28;20100;-72
2024/01/18 09:54:09;;;;;;;1.97;1.20;;;;;;;8.26;45.13;100152.38;5053513;28;20453;-72
2024/01/18 09:56:42;;;;;;;1.53;1.20;;;;;;;9.09;44.15;100139.16;5050246;28;21719;-72
2024/01/18 09:59:09;;;;;;;1.90;1.20;;;;;;;9.67;44.03;100143.47;5047081;28;20484;-71
2024/01/18 10:01:34;;;;;;;3.87;1.53;;;;;;;10.22;43.19;100145.06;5052635;28;20017;-72
2024/01/18 10:04:00;;;;;;;5.43;0.67;;;;;;;11.17;41.72;100147.47;5052371;28;20159;-72
2024/01/18 10:06:26;;;;;;;2.73;0.97;;;;;;;11.13;41.13;100156.28;5051440;28;20496;-72
2024/01/18 10:08:52;;;;;;;3.10;0.90;;;;;;;11.89;40.23;100157.88;5047644;28;20029;-72
2024/01/18 10:11:19;;;;;;;0.83;0.70;;;;;;;11.26;40.65;100170.75;5049433;28;20468;-72
2024/01/18 10:13:47;;;;;;;0.60;0.60;;;;;;;11.98;40.04;100178.63;5052755;28;20029;-72
2024/01/18 10:16:26;;;;;;;2.53;0.40;;;;;;;11.88;40.29;100184.97;5053117;28;20055;-72
2024/01/18 10:18:51;;;;;;;3.17;0.37;;;;;;;11.76;40.02;100182.66;5050850;28;20559;-73
2024/01/18 10:21:17;;;;;;;0.60;0.50;;;;;;;12.17;39.22;100199.97;5052887;28;20112;-73
2024/01/18 10:23:43;;;;;;;4.27;0.37;;;;;;;12.17;40.13;100204.31;5052571;28;20029;-73
2024/01/18 10:26:09;;;;;;;2.47;0.50;;;;;;;11.77;40.26;100200.94;5051057;28;20035;-73
2024/01/18 10:28:36;;;;;;;0.97;0.50;;;;;;;12.27;39.94;100205.81;5050361;28;20106;-73
2024/01/18 10:31:01;;;;;;;0.40;0.40;;;;;;;12.26;40.05;100201.47;5050772;28;20392;-73
2024/01/18 10:33:29;;;;;;;3.90;1.10;;;;;;;12.37;39.60;100199.41;5050807;28;20043;-73
2024/01/18 10:35:54;;;;;;;2.97;0.90;;;;;;;12.54;39.67;100198.97;5036075;28;20073;-73
2024/01/18 10:38:27;;;;;;;5.73;1.53;;;;;;;13.00;39.51;100209.88;5048757;28;20531;-73
2024/01/18 10:40:53;;;;;;;;;;;;;;;13.61;38.20;100211.50;5049244;28;20032;-73
2024/01/18 10:43:18;;;;;;;7.10;0.73;;;;;;;11.74;40.79;100215.88;5051035;28;19912;-73
2024/01/18 10:45:45;;;;;;;1.60;0.63;;;;;;;12.71;39.55;100214.19;5052200;28;20083;-73
2024/01/18 10:48:11;;;;;;;3.33;1.33;;;;;;;12.08;41.03;100226.41;5051736;28;20171;-73
2024/01/18 10:50:37;;;;;;;1.13;0.70;;;;;;;13.31;39.97;100231.69;5051961;28;20024;-73
2024/01/18 10:53:03;;;;;;;6.00;1.63;;;;;;;13.70;38.21;100226.97;5049639;28;20029;-73
2024/01/18 10:55:31;;;;;;;1.53;0.60;;;;;;;13.85;37.29;100227.38;5050202;28;20037;-73
2024/01/18 10:57:58;;;;;;;4.53;0.60;;;;;;;14.21;37.35;100227.03;5052072;28;20029;-73
2024/01/18 11:00:23;;;;;;;6.27;0.50;;;;;;;14.49;37.66;100236.56;5051015;28;20520;-73
2024/01/18 11:02:50;;;;;;;7.33;0.60;;;;;;;14.14;37.71;100239.53;5051859;28;20032;-74
2024/01/18 11:05:21;;;;;;;3.40;0.77;;;;;;;14.07;36.30;100238.88;5050214;28;20502;-74
2024/01/18 11:07:46;;;;;;;3.20;0.43;;;;;;;14.19;36.76;100242.88;5050930;28;20033;-74
2024/01/18 11:10:12;;;;;;;0.80;0.40;;;;;;;14.11;35.52;100233.50;5050553;28;20037;-74
2024/01/18 11:12:39;;;;;;;1.10;0.53;;;;;;;13.94;36.46;100236.72;5046058;28;20385;-73
2024/01/18 11:15:06;;;;;;;2.00;0.40;;;;;;;13.63;36.87;100246.47;5048588;28;20017;-73
2024/01/18 11:17:34;;;;;;;2.10;0.20;;;;;;;13.37;38.15;100257.78;5051422;28;20044;-73
2024/01/18 11:20:00;;;;;;;6.90;0.90;;;;;;;13.35;37.01;100260.47;5051345;28;20056;-74
2024/01/18 11:22:30;;;;;;;0.53;0.40;;;;;;;12.60;38.32;100260.84;5051181;28;20032;-74
2024/01/18 11:25:06;;;;;;;2.03;0.50;;;;;;;13.44;37.25;100266.34;5051940;28;20477;-74
2024/01/18 11:27:40;;;;;;;0.30;0.30;;;;;;;13.09;37.40;100265.59;5048375;28;20473;-74
2024/01/18 11:30:34;;;;;;;3.27;0.27;;;;;;;14.87;34.47;100263.31;5050000;28;20083;-74